TWA8PZ LROP-LRTR
Flight info
| Callsign | TWA8PZ |
|---|---|
| Flight time | 0h 42m |
| Altitude | 26000 |
| Route | SOKRU DCT OXDOC DCT NEKUL |
| Aircraft | L101/H-SDFGHIRWXY/S |
Departure
| Time | 2026-04-20 00:54 |
|---|---|
| Airport | Bucharest Henri Coandă International Airport (LROP) |
Arrival
| Time | 2026-04-20 01:36 |
|---|---|
| Airport | Timișoara Traian Vuia International Airport (LRTR) |
| Time | Latitude | Longitude | Altitude | Speed | Heading |
|---|---|---|---|---|---|
| 2026-04-20 00:21 | 44.56980 | 26.10273 | 233 ft | 0 kts | 174° |
| 2026-04-20 00:39 | 44.56999 | 26.10270 | 315 ft | 3 kts | 174° |
| 2026-04-20 00:39 | 44.57023 | 26.10266 | 314 ft | 4 kts | 177° |
| 2026-04-20 00:39 | 44.57045 | 26.10273 | 315 ft | 4 kts | 234° |
| 2026-04-20 00:40 | 44.57054 | 26.10306 | 314 ft | 3 kts | 263° |
| 2026-04-20 00:40 | 44.57055 | 26.10318 | 316 ft | 0 kts | 264° |
| 2026-04-20 00:44 | 44.57054 | 26.10313 | 316 ft | 2 kts | 264° |
| 2026-04-20 00:44 | 44.57051 | 26.10269 | 317 ft | 7 kts | 264° |
| 2026-04-20 00:44 | 44.57045 | 26.10184 | 316 ft | 11 kts | 264° |
| 2026-04-20 00:44 | 44.57038 | 26.10099 | 316 ft | 9 kts | 264° |
| 2026-04-20 00:45 | 44.57032 | 26.10014 | 317 ft | 10 kts | 264° |
| 2026-04-20 00:45 | 44.57045 | 26.09928 | 316 ft | 10 kts | 311° |
| 2026-04-20 00:45 | 44.57121 | 26.09895 | 317 ft | 13 kts | 353° |
| 2026-04-20 00:45 | 44.57203 | 26.09881 | 316 ft | 13 kts | 353° |
| 2026-04-20 00:46 | 44.57303 | 26.09867 | 318 ft | 15 kts | 354° |
| 2026-04-20 00:46 | 44.57358 | 26.09858 | 318 ft | 8 kts | 353° |
| 2026-04-20 00:46 | 44.57420 | 26.09849 | 320 ft | 10 kts | 354° |
| 2026-04-20 00:46 | 44.57486 | 26.09840 | 323 ft | 7 kts | 354° |
| 2026-04-20 00:47 | 44.57541 | 26.09831 | 321 ft | 10 kts | 354° |
| 2026-04-20 00:47 | 44.57595 | 26.09874 | 322 ft | 10 kts | 70° |
| 2026-04-20 00:47 | 44.57606 | 26.09974 | 328 ft | 11 kts | 84° |
| 2026-04-20 00:47 | 44.57616 | 26.10097 | 326 ft | 14 kts | 83° |
| 2026-04-20 00:48 | 44.57629 | 26.10263 | 323 ft | 20 kts | 84° |
| 2026-04-20 00:48 | 44.57644 | 26.10464 | 324 ft | 20 kts | 83° |
| 2026-04-20 00:48 | 44.57655 | 26.10612 | 320 ft | 16 kts | 84° |
| 2026-04-20 00:48 | 44.57669 | 26.10801 | 318 ft | 22 kts | 84° |
| 2026-04-20 00:49 | 44.57683 | 26.10998 | 316 ft | 10 kts | 84° |
| 2026-04-20 00:49 | 44.57693 | 26.11123 | 317 ft | 15 kts | 83° |
| 2026-04-20 00:49 | 44.57704 | 26.11263 | 316 ft | 12 kts | 84° |
| 2026-04-20 00:49 | 44.57714 | 26.11389 | 316 ft | 14 kts | 84° |
| 2026-04-20 00:50 | 44.57724 | 26.11535 | 318 ft | 16 kts | 84° |
| 2026-04-20 00:50 | 44.57737 | 26.11700 | 321 ft | 18 kts | 84° |
| 2026-04-20 00:50 | 44.57750 | 26.11874 | 323 ft | 14 kts | 84° |
| 2026-04-20 00:50 | 44.57762 | 26.12030 | 323 ft | 18 kts | 84° |
| 2026-04-20 00:51 | 44.57776 | 26.12217 | 321 ft | 15 kts | 84° |
| 2026-04-20 00:51 | 44.57788 | 26.12388 | 317 ft | 21 kts | 84° |
| 2026-04-20 00:51 | 44.57801 | 26.12550 | 314 ft | 15 kts | 84° |
| 2026-04-20 00:51 | 44.57812 | 26.12703 | 315 ft | 3 kts | 84° |
| 2026-04-20 00:52 | 44.57815 | 26.12747 | 315 ft | 7 kts | 84° |
| 2026-04-20 00:52 | 44.57832 | 26.12827 | 313 ft | 10 kts | 52° |
| 2026-04-20 00:52 | 44.57896 | 26.12840 | 314 ft | 10 kts | 330° |
| 2026-04-20 00:52 | 44.57962 | 26.12772 | 314 ft | 14 kts | 316° |
| 2026-04-20 00:53 | 44.57984 | 26.12685 | 316 ft | 7 kts | 269° |
| 2026-04-20 00:53 | 44.57982 | 26.12652 | 316 ft | 1 kts | 264° |
| 2026-04-20 00:53 | 44.57968 | 26.12464 | 320 ft | 62 kts | 264° |
| 2026-04-20 00:53 | 44.57894 | 26.11378 | 321 ft | 157 kts | 265° |
| 2026-04-20 00:54 | 44.57760 | 26.09682 | 975 ft | 191 kts | 264° |
| 2026-04-20 00:54 | 44.57589 | 26.07713 | 2058 ft | 216 kts | 263° |
| 2026-04-20 00:54 | 44.57389 | 26.05391 | 2767 ft | 266 kts | 263° |
| 2026-04-20 00:54 | 44.57201 | 26.02944 | 3763 ft | 227 kts | 265° |
| 2026-04-20 00:55 | 44.57033 | 26.00700 | 4937 ft | 239 kts | 266° |
| 2026-04-20 00:55 | 44.56841 | 25.98330 | 6123 ft | 248 kts | 266° |
| 2026-04-20 00:55 | 44.56625 | 25.95907 | 7257 ft | 248 kts | 266° |
| 2026-04-20 00:55 | 44.56394 | 25.93561 | 8485 ft | 241 kts | 268° |
| 2026-04-20 00:56 | 44.56550 | 25.91186 | 9007 ft | 258 kts | 294° |
| 2026-04-20 00:56 | 44.57616 | 25.89018 | 9179 ft | 285 kts | 322° |
| 2026-04-20 00:56 | 44.59341 | 25.87547 | 9947 ft | 289 kts | 331° |
| 2026-04-20 00:56 | 44.60965 | 25.86003 | 11233 ft | 279 kts | 322° |
| 2026-04-20 00:57 | 44.62388 | 25.84142 | 12026 ft | 291 kts | 317° |
| 2026-04-20 00:57 | 44.63872 | 25.82018 | 12247 ft | 318 kts | 317° |
| 2026-04-20 00:57 | 44.65501 | 25.79733 | 12377 ft | 343 kts | 318° |
| 2026-04-20 00:57 | 44.67267 | 25.77326 | 12499 ft | 364 kts | 318° |
| 2026-04-20 00:58 | 44.69107 | 25.74828 | 13169 ft | 366 kts | 318° |
| 2026-04-20 00:58 | 44.70920 | 25.72343 | 14123 ft | 364 kts | 318° |
| 2026-04-20 00:58 | 44.72734 | 25.69783 | 14535 ft | 375 kts | 314° |
| 2026-04-20 00:58 | 44.74181 | 25.66721 | 15365 ft | 379 kts | 299° |
| 2026-04-20 00:59 | 44.75123 | 25.63246 | 15853 ft | 391 kts | 292° |
| 2026-04-20 00:59 | 44.75939 | 25.59590 | 16571 ft | 393 kts | 292° |
| 2026-04-20 00:59 | 44.76850 | 25.55935 | 17270 ft | 396 kts | 295° |
| 2026-04-20 00:59 | 44.77852 | 25.52289 | 17967 ft | 400 kts | 295° |
| 2026-04-20 01:00 | 44.78870 | 25.48626 | 18653 ft | 405 kts | 295° |
| 2026-04-20 01:00 | 44.79884 | 25.44889 | 19248 ft | 411 kts | 295° |
| 2026-04-20 01:00 | 44.80898 | 25.41102 | 19896 ft | 415 kts | 295° |
| 2026-04-20 01:00 | 44.81920 | 25.37278 | 20523 ft | 419 kts | 295° |
| 2026-04-20 01:01 | 44.82957 | 25.33406 | 21169 ft | 424 kts | 295° |
| 2026-04-20 01:01 | 44.83992 | 25.29540 | 21789 ft | 428 kts | 295° |
| 2026-04-20 01:01 | 44.85060 | 25.25543 | 22404 ft | 433 kts | 295° |
| 2026-04-20 01:01 | 44.86110 | 25.21605 | 22998 ft | 437 kts | 295° |
| 2026-04-20 01:02 | 44.87183 | 25.17571 | 23581 ft | 441 kts | 295° |
| 2026-04-20 01:02 | 44.88263 | 25.13505 | 24066 ft | 445 kts | 295° |
| 2026-04-20 01:02 | 44.89356 | 25.09384 | 24503 ft | 450 kts | 295° |
| 2026-04-20 01:02 | 44.90451 | 25.05244 | 25015 ft | 453 kts | 296° |
| 2026-04-20 01:03 | 44.91560 | 25.01047 | 25441 ft | 458 kts | 296° |
| 2026-04-20 01:03 | 44.92689 | 24.96776 | 25577 ft | 469 kts | 296° |
| 2026-04-20 01:03 | 44.93844 | 24.92411 | 25698 ft | 480 kts | 295° |
| 2026-04-20 01:03 | 44.95000 | 24.88008 | 25934 ft | 468 kts | 295° |
| 2026-04-20 01:04 | 44.96121 | 24.83700 | 26050 ft | 481 kts | 295° |
| 2026-04-20 01:04 | 44.97295 | 24.79227 | 26038 ft | 488 kts | 296° |
| 2026-04-20 01:04 | 44.98475 | 24.74714 | 26078 ft | 491 kts | 295° |
| 2026-04-20 01:04 | 44.99659 | 24.70169 | 26084 ft | 493 kts | 295° |
| 2026-04-20 01:05 | 45.00836 | 24.65626 | 26088 ft | 493 kts | 295° |
| 2026-04-20 01:05 | 45.02014 | 24.61070 | 26089 ft | 493 kts | 295° |
| 2026-04-20 01:05 | 45.03190 | 24.56513 | 26086 ft | 493 kts | 295° |
| 2026-04-20 01:05 | 45.04365 | 24.51952 | 26084 ft | 493 kts | 295° |
| 2026-04-20 01:06 | 45.05532 | 24.47410 | 26077 ft | 492 kts | 295° |
| 2026-04-20 01:06 | 45.06702 | 24.42846 | 26070 ft | 493 kts | 295° |
| 2026-04-20 01:06 | 45.07871 | 24.38274 | 26077 ft | 493 kts | 295° |
| 2026-04-20 01:06 | 45.09035 | 24.33710 | 26084 ft | 493 kts | 295° |
| 2026-04-20 01:07 | 45.10197 | 24.29139 | 26084 ft | 493 kts | 295° |
| 2026-04-20 01:07 | 45.11355 | 24.24568 | 26084 ft | 493 kts | 295° |
| 2026-04-20 01:07 | 45.12501 | 24.20040 | 26081 ft | 493 kts | 295° |
| 2026-04-20 01:07 | 45.13656 | 24.15465 | 26084 ft | 494 kts | 295° |
| 2026-04-20 01:08 | 45.14809 | 24.10895 | 26068 ft | 493 kts | 295° |
| 2026-04-20 01:08 | 45.15962 | 24.06315 | 26079 ft | 493 kts | 294° |
| 2026-04-20 01:08 | 45.17109 | 24.01744 | 26083 ft | 492 kts | 294° |
| 2026-04-20 01:08 | 45.18261 | 23.97173 | 26086 ft | 492 kts | 295° |
| 2026-04-20 01:09 | 45.19494 | 23.92660 | 26086 ft | 490 kts | 297° |
| 2026-04-20 01:09 | 45.20820 | 23.88197 | 26089 ft | 489 kts | 298° |
| 2026-04-20 01:09 | 45.22154 | 23.83758 | 26087 ft | 490 kts | 298° |
| 2026-04-20 01:09 | 45.23474 | 23.79280 | 26091 ft | 490 kts | 297° |
| 2026-04-20 01:10 | 45.24769 | 23.74824 | 26087 ft | 489 kts | 297° |
| 2026-04-20 01:10 | 45.27334 | 23.65967 | 26084 ft | 487 kts | 297° |
| 2026-04-20 01:10 | 45.28626 | 23.61513 | 26082 ft | 487 kts | 297° |
| 2026-04-20 01:11 | 45.29913 | 23.57069 | 26089 ft | 487 kts | 297° |
| 2026-04-20 01:11 | 45.31200 | 23.52617 | 26091 ft | 487 kts | 297° |
| 2026-04-20 01:11 | 45.32482 | 23.48165 | 26085 ft | 487 kts | 297° |
| 2026-04-20 01:11 | 45.33764 | 23.43712 | 26087 ft | 487 kts | 297° |
| 2026-04-20 01:12 | 45.35048 | 23.39247 | 26111 ft | 487 kts | 297° |
| 2026-04-20 01:12 | 45.36326 | 23.34787 | 26096 ft | 488 kts | 297° |
| 2026-04-20 01:12 | 45.37603 | 23.30321 | 26099 ft | 488 kts | 297° |
| 2026-04-20 01:12 | 45.38881 | 23.25844 | 26098 ft | 488 kts | 296° |
| 2026-04-20 01:13 | 45.40158 | 23.21357 | 26101 ft | 488 kts | 296° |
| 2026-04-20 01:13 | 45.41431 | 23.16877 | 26108 ft | 488 kts | 296° |
| 2026-04-20 01:13 | 45.42700 | 23.12403 | 26103 ft | 488 kts | 296° |
| 2026-04-20 01:13 | 45.43970 | 23.07916 | 26103 ft | 487 kts | 296° |
| 2026-04-20 01:14 | 45.45236 | 23.03434 | 26101 ft | 487 kts | 296° |
| 2026-04-20 01:14 | 45.46477 | 22.99024 | 26102 ft | 486 kts | 296° |
| 2026-04-20 01:14 | 45.47735 | 22.94546 | 26104 ft | 486 kts | 296° |
| 2026-04-20 01:14 | 45.48992 | 22.90065 | 26102 ft | 486 kts | 296° |
| 2026-04-20 01:15 | 45.50244 | 22.85591 | 26104 ft | 486 kts | 296° |
| 2026-04-20 01:15 | 45.51076 | 22.82614 | 26102 ft | 486 kts | 296° |
| 2026-04-20 01:15 | 45.52324 | 22.78138 | 26099 ft | 486 kts | 296° |
| 2026-04-20 01:15 | 45.53574 | 22.73652 | 26090 ft | 485 kts | 295° |
| 2026-04-20 01:16 | 45.54818 | 22.69176 | 26094 ft | 484 kts | 295° |
| 2026-04-20 01:16 | 45.56055 | 22.64710 | 26094 ft | 484 kts | 295° |
| 2026-04-20 01:16 | 45.57291 | 22.60239 | 26101 ft | 484 kts | 295° |
| 2026-04-20 01:16 | 45.58523 | 22.55770 | 26104 ft | 485 kts | 295° |
| 2026-04-20 01:17 | 45.59756 | 22.51292 | 26105 ft | 485 kts | 295° |
| 2026-04-20 01:17 | 45.60988 | 22.46808 | 26098 ft | 485 kts | 295° |
| 2026-04-20 01:17 | 45.62215 | 22.42329 | 26081 ft | 484 kts | 295° |
| 2026-04-20 01:17 | 45.63445 | 22.37845 | 26091 ft | 483 kts | 295° |
| 2026-04-20 01:18 | 45.64669 | 22.33372 | 26099 ft | 483 kts | 294° |
| 2026-04-20 01:18 | 45.65873 | 22.28948 | 25967 ft | 485 kts | 294° |
| 2026-04-20 01:18 | 45.67101 | 22.24423 | 25341 ft | 474 kts | 294° |
| 2026-04-20 01:18 | 45.68259 | 22.20135 | 24729 ft | 463 kts | 294° |
| 2026-04-20 01:19 | 45.69415 | 22.15849 | 24147 ft | 458 kts | 294° |
| 2026-04-20 01:19 | 45.70555 | 22.11624 | 23539 ft | 453 kts | 294° |
| 2026-04-20 01:19 | 45.71686 | 22.07434 | 22835 ft | 449 kts | 294° |
| 2026-04-20 01:19 | 45.72805 | 22.03282 | 22151 ft | 441 kts | 294° |
| 2026-04-20 01:20 | 45.73872 | 21.99296 | 21480 ft | 418 kts | 293° |
| 2026-04-20 01:20 | 45.74881 | 21.95507 | 20853 ft | 399 kts | 293° |
| 2026-04-20 01:20 | 45.75862 | 21.91829 | 20344 ft | 395 kts | 293° |
| 2026-04-20 01:20 | 45.76846 | 21.88155 | 19846 ft | 393 kts | 293° |
| 2026-04-20 01:21 | 45.77822 | 21.84506 | 19313 ft | 391 kts | 293° |
| 2026-04-20 01:21 | 45.78780 | 21.80916 | 18823 ft | 389 kts | 293° |
| 2026-04-20 01:21 | 45.79740 | 21.77311 | 18309 ft | 386 kts | 292° |
| 2026-04-20 01:21 | 45.80692 | 21.73727 | 17759 ft | 384 kts | 292° |
| 2026-04-20 01:22 | 45.81638 | 21.70164 | 17203 ft | 381 kts | 292° |
| 2026-04-20 01:22 | 45.82574 | 21.66630 | 16677 ft | 378 kts | 292° |
| 2026-04-20 01:22 | 45.83501 | 21.63122 | 16168 ft | 375 kts | 292° |
| 2026-04-20 01:22 | 45.84422 | 21.59634 | 15658 ft | 372 kts | 292° |
| 2026-04-20 01:23 | 45.85335 | 21.56171 | 15162 ft | 369 kts | 292° |
| 2026-04-20 01:23 | 45.86239 | 21.52740 | 14672 ft | 367 kts | 292° |
| 2026-04-20 01:23 | 45.87135 | 21.49329 | 14191 ft | 364 kts | 292° |
| 2026-04-20 01:23 | 45.88025 | 21.45940 | 13681 ft | 361 kts | 292° |
| 2026-04-20 01:24 | 45.88908 | 21.42567 | 13137 ft | 358 kts | 292° |
| 2026-04-20 01:24 | 45.89779 | 21.39236 | 12558 ft | 355 kts | 292° |
| 2026-04-20 01:24 | 45.90641 | 21.35938 | 12019 ft | 351 kts | 292° |
| 2026-04-20 01:24 | 45.91472 | 21.32755 | 11507 ft | 336 kts | 292° |
| 2026-04-20 01:25 | 45.92270 | 21.29685 | 11019 ft | 320 kts | 292° |
| 2026-04-20 01:25 | 45.93030 | 21.26754 | 10525 ft | 307 kts | 292° |
| 2026-04-20 01:25 | 45.93766 | 21.23922 | 10036 ft | 297 kts | 292° |
| 2026-04-20 01:25 | 45.94476 | 21.21185 | 9511 ft | 288 kts | 292° |
| 2026-04-20 01:26 | 45.95163 | 21.18530 | 9064 ft | 278 kts | 292° |
| 2026-04-20 01:26 | 45.95833 | 21.15944 | 8628 ft | 275 kts | 292° |
| 2026-04-20 01:26 | 45.96504 | 21.13358 | 8186 ft | 276 kts | 292° |
| 2026-04-20 01:26 | 45.97176 | 21.10770 | 7772 ft | 275 kts | 292° |
| 2026-04-20 01:27 | 45.97834 | 21.08231 | 7417 ft | 275 kts | 293° |
| 2026-04-20 01:27 | 45.98501 | 21.05659 | 6992 ft | 274 kts | 293° |
| 2026-04-20 01:27 | 45.99164 | 21.03096 | 6571 ft | 273 kts | 293° |
| 2026-04-20 01:27 | 45.99826 | 21.00546 | 6137 ft | 271 kts | 292° |
| 2026-04-20 01:28 | 46.00475 | 20.98016 | 5707 ft | 268 kts | 290° |
| 2026-04-20 01:28 | 46.00777 | 20.95377 | 5188 ft | 269 kts | 268° |
| 2026-04-20 01:28 | 46.00212 | 20.92837 | 4664 ft | 269 kts | 238° |
| 2026-04-20 01:28 | 45.98864 | 20.91029 | 4189 ft | 267 kts | 208° |
| 2026-04-20 01:29 | 45.97092 | 20.90427 | 3787 ft | 260 kts | 176° |
| 2026-04-20 01:29 | 45.95405 | 20.91160 | 3417 ft | 252 kts | 146° |
| 2026-04-20 01:29 | 45.94186 | 20.92869 | 3200 ft | 238 kts | 127° |
| 2026-04-20 01:29 | 45.93158 | 20.94667 | 3090 ft | 233 kts | 133° |
| 2026-04-20 01:30 | 45.91981 | 20.96282 | 3038 ft | 235 kts | 136° |
| 2026-04-20 01:30 | 45.90824 | 20.97936 | 3002 ft | 235 kts | 130° |
| 2026-04-20 01:30 | 45.89842 | 20.99773 | 3014 ft | 234 kts | 123° |
| 2026-04-20 01:30 | 45.88950 | 21.01744 | 2994 ft | 235 kts | 115° |
| 2026-04-20 01:31 | 45.88364 | 21.03926 | 3009 ft | 233 kts | 104° |
| 2026-04-20 01:31 | 45.87896 | 21.06154 | 3009 ft | 234 kts | 106° |
| 2026-04-20 01:31 | 45.87354 | 21.08339 | 3030 ft | 223 kts | 108° |
| 2026-04-20 01:31 | 45.86826 | 21.10367 | 3036 ft | 214 kts | 108° |
| 2026-04-20 01:32 | 45.86323 | 21.12372 | 3029 ft | 213 kts | 107° |
| 2026-04-20 01:32 | 45.85839 | 21.14320 | 2826 ft | 200 kts | 107° |
| 2026-04-20 01:32 | 45.85381 | 21.16154 | 2614 ft | 190 kts | 107° |
| 2026-04-20 01:32 | 45.84949 | 21.17879 | 2514 ft | 179 kts | 107° |
| 2026-04-20 01:33 | 45.84529 | 21.19541 | 2243 ft | 169 kts | 107° |
| 2026-04-20 01:33 | 45.84140 | 21.21056 | 1921 ft | 158 kts | 107° |
| 2026-04-20 01:33 | 45.83763 | 21.22510 | 1716 ft | 155 kts | 107° |
| 2026-04-20 01:33 | 45.83382 | 21.23993 | 1551 ft | 163 kts | 107° |
| 2026-04-20 01:34 | 45.82989 | 21.25535 | 1292 ft | 164 kts | 108° |
| 2026-04-20 01:34 | 45.82615 | 21.27068 | 1082 ft | 162 kts | 106° |
| 2026-04-20 01:34 | 45.82268 | 21.28594 | 821 ft | 159 kts | 107° |
| 2026-04-20 01:34 | 45.81909 | 21.30064 | 597 ft | 155 kts | 109° |
| 2026-04-20 01:35 | 45.81566 | 21.31469 | 398 ft | 143 kts | 108° |
| 2026-04-20 01:35 | 45.81274 | 21.32628 | 351 ft | 97 kts | 109° |
| 2026-04-20 01:35 | 45.81086 | 21.33375 | 352 ft | 68 kts | 107° |
| 2026-04-20 01:35 | 45.80938 | 21.33950 | 353 ft | 56 kts | 110° |
| 2026-04-20 01:36 | 45.80856 | 21.34286 | 349 ft | 19 kts | 109° |
| 2026-04-20 01:36 | 45.80824 | 21.34395 | 354 ft | 2 kts | 93° |
| 2026-04-20 01:36 | 45.80829 | 21.34400 | 350 ft | 0 kts | 43° |
| 2026-04-20 01:36 | 45.80830 | 21.34401 | 350 ft | 0 kts | 37° |
| 2026-04-20 01:37 | 45.80833 | 21.34401 | 349 ft | 1 kts | 23° |
| 2026-04-20 01:37 | 45.80836 | 21.34400 | 344 ft | 1 kts | 355° |
| 2026-04-20 01:37 | 45.80839 | 21.34395 | 352 ft | 1 kts | 322° |
| 2026-04-20 01:37 | 45.80842 | 21.34382 | 356 ft | 5 kts | 293° |
| 2026-04-20 01:38 | 45.80861 | 21.34281 | 351 ft | 13 kts | 285° |
| 2026-04-20 01:38 | 45.80890 | 21.34156 | 354 ft | 14 kts | 289° |
| 2026-04-20 01:38 | 45.80928 | 21.34006 | 355 ft | 18 kts | 289° |
| 2026-04-20 01:38 | 45.80970 | 21.33836 | 357 ft | 15 kts | 289° |
| 2026-04-20 01:39 | 45.81006 | 21.33691 | 353 ft | 14 kts | 289° |
| 2026-04-20 01:39 | 45.80966 | 21.33568 | 357 ft | 16 kts | 207° |
| 2026-04-20 01:39 | 45.80897 | 21.33522 | 348 ft | 12 kts | 218° |
| 2026-04-20 01:39 | 45.80871 | 21.33401 | 354 ft | 15 kts | 279° |
| 2026-04-20 01:40 | 45.80907 | 21.33245 | 349 ft | 18 kts | 289° |
| 2026-04-20 01:40 | 45.80954 | 21.33056 | 351 ft | 17 kts | 290° |
| 2026-04-20 01:40 | 45.80992 | 21.32906 | 347 ft | 18 kts | 290° |
| 2026-04-20 01:40 | 45.81031 | 21.32754 | 354 ft | 16 kts | 289° |
| 2026-04-20 01:41 | 45.81064 | 21.32618 | 352 ft | 10 kts | 290° |
| 2026-04-20 01:41 | 45.81089 | 21.32504 | 349 ft | 13 kts | 269° |
| 2026-04-20 01:41 | 45.81056 | 21.32442 | 354 ft | 7 kts | 193° |
| 2026-04-20 01:41 | 45.81004 | 21.32434 | 349 ft | 6 kts | 189° |
| 2026-04-20 01:42 | 45.80986 | 21.32402 | 357 ft | 3 kts | 278° |
| 2026-04-20 01:42 | 45.80998 | 21.32389 | 353 ft | 1 kts | 326° |
| 2026-04-20 01:42 | 45.81014 | 21.32370 | 357 ft | 0 kts | 318° |